sensor_id;sensor_type;location;lat;lon;timestamp;pressure;altitude;pressure_sealevel;temperature;humidity
81387;BME280;70842;50.744;7.114;2024-02-23T00:00:37;98604.41;;;8.12;65.42
81387;BME280;70842;50.744;7.114;2024-02-23T00:03:03;98587.56;;;7.97;65.04
81387;BME280;70842;50.744;7.114;2024-02-23T00:05:30;98605.16;;;7.63;66.23
81387;BME280;70842;50.744;7.114;2024-02-23T00:07:56;98626.03;;;7.82;65.67
81387;BME280;70842;50.744;7.114;2024-02-23T00:10:23;98575.91;;;7.74;65.85
81387;BME280;70842;50.744;7.114;2024-02-23T00:12:49;98638.56;;;8.14;65.21
81387;BME280;70842;50.744;7.114;2024-02-23T00:15:16;98621.88;;;7.71;66.52
81387;BME280;70842;50.744;7.114;2024-02-23T00:17:42;98647.19;;;7.64;66.54
81387;BME280;70842;50.744;7.114;2024-02-23T00:20:09;98616.25;;;7.49;65.36
81387;BME280;70842;50.744;7.114;2024-02-23T00:22:41;98630.19;;;7.59;64.79
81387;BME280;70842;50.744;7.114;2024-02-23T00:25:07;98653.06;;;7.84;63.91
81387;BME280;70842;50.744;7.114;2024-02-23T00:27:34;98654.84;;;7.75;63.53
81387;BME280;70842;50.744;7.114;2024-02-23T00:30:00;98650.75;;;8.15;62.45
81387;BME280;70842;50.744;7.114;2024-02-23T00:32:27;98648.94;;;7.81;62.73
81387;BME280;70842;50.744;7.114;2024-02-23T00:34:53;98654.88;;;7.58;63.09
81387;BME280;70842;50.744;7.114;2024-02-23T00:37:20;98658.38;;;7.66;62.88
81387;BME280;70842;50.744;7.114;2024-02-23T00:39:46;98664.34;;;7.25;63.25
81387;BME280;70842;50.744;7.114;2024-02-23T00:42:13;98670.13;;;7.72;62.74
81387;BME280;70842;50.744;7.114;2024-02-23T00:44:39;98675.13;;;7.83;62.43
81387;BME280;70842;50.744;7.114;2024-02-23T00:47:06;98688.72;;;7.70;62.91
81387;BME280;70842;50.744;7.114;2024-02-23T00:49:32;98700.19;;;7.87;62.04
81387;BME280;70842;50.744;7.114;2024-02-23T00:51:59;98698.44;;;7.44;62.89
81387;BME280;70842;50.744;7.114;2024-02-23T00:54:25;98699.47;;;7.77;62.62
81387;BME280;70842;50.744;7.114;2024-02-23T00:56:52;98715.81;;;7.55;62.05
81387;BME280;70842;50.744;7.114;2024-02-23T00:59:22;98724.28;;;7.66;61.98
81387;BME280;70842;50.744;7.114;2024-02-23T01:01:49;98731.13;;;7.59;61.85
81387;BME280;70842;50.744;7.114;2024-02-23T01:04:15;98726.94;;;7.49;61.87
81387;BME280;70842;50.744;7.114;2024-02-23T01:06:42;98726.69;;;7.77;61.11
81387;BME280;70842;50.744;7.114;2024-02-23T01:09:08;98738.97;;;7.69;61.18
81387;BME280;70842;50.744;7.114;2024-02-23T01:11:35;98745.75;;;7.54;61.34
81387;BME280;70842;50.744;7.114;2024-02-23T01:14:01;98742.78;;;7.74;61.23
81387;BME280;70842;50.744;7.114;2024-02-23T01:16:27;98747.41;;;7.98;60.61
81387;BME280;70842;50.744;7.114;2024-02-23T01:18:54;98742.38;;;7.44;61.16
81387;BME280;70842;50.744;7.114;2024-02-23T01:21:20;98749.69;;;7.50;61.40
81387;BME280;70842;50.744;7.114;2024-02-23T01:23:47;98754.19;;;7.57;60.57
81387;BME280;70842;50.744;7.114;2024-02-23T01:26:13;98754.56;;;7.45;60.76
81387;BME280;70842;50.744;7.114;2024-02-23T01:28:40;98761.00;;;7.85;60.06
81387;BME280;70842;50.744;7.114;2024-02-23T01:31:08;98756.00;;;8.00;59.36
81387;BME280;70842;50.744;7.114;2024-02-23T01:33:37;98754.09;;;7.84;59.58
81387;BME280;70842;50.744;7.114;2024-02-23T01:36:05;98762.03;;;7.49;59.63
81387;BME280;70842;50.744;7.114;2024-02-23T01:38:32;98755.06;;;7.66;59.79
81387;BME280;70842;50.744;7.114;2024-02-23T01:40:59;98739.03;;;8.03;58.67
81387;BME280;70842;50.744;7.114;2024-02-23T01:43:26;98763.91;;;7.57;59.81
81387;BME280;70842;50.744;7.114;2024-02-23T01:45:53;98760.28;;;7.75;59.31
81387;BME280;70842;50.744;7.114;2024-02-23T01:48:20;98759.72;;;7.72;59.36
81387;BME280;70842;50.744;7.114;2024-02-23T01:50:47;98760.16;;;8.03;58.74
81387;BME280;70842;50.744;7.114;2024-02-23T01:53:13;98769.16;;;7.74;59.31
81387;BME280;70842;50.744;7.114;2024-02-23T01:55:41;98767.63;;;7.46;59.99
81387;BME280;70842;50.744;7.114;2024-02-23T01:58:10;98765.16;;;7.88;59.16
81387;BME280;70842;50.744;7.114;2024-02-23T02:00:37;98770.16;;;7.56;60.00
81387;BME280;70842;50.744;7.114;2024-02-23T02:03:04;98781.69;;;7.55;59.68
81387;BME280;70842;50.744;7.114;2024-02-23T02:05:36;98782.09;;;7.68;59.36
81387;BME280;70842;50.744;7.114;2024-02-23T02:08:04;98784.69;;;7.60;59.87
81387;BME280;70842;50.744;7.114;2024-02-23T02:10:30;98793.44;;;7.60;59.64
81387;BME280;70842;50.744;7.114;2024-02-23T02:13:04;98789.56;;;7.90;58.79
81387;BME280;70842;50.744;7.114;2024-02-23T02:15:31;98799.59;;;7.34;59.26
81387;BME280;70842;50.744;7.114;2024-02-23T02:17:58;98810.28;;;7.50;59.24
81387;BME280;70842;50.744;7.114;2024-02-23T02:20:25;98798.91;;;7.67;58.62
81387;BME280;70842;50.744;7.114;2024-02-23T02:22:54;98801.25;;;7.52;58.92
81387;BME280;70842;50.744;7.114;2024-02-23T02:25:21;98793.56;;;7.76;58.09
81387;BME280;70842;50.744;7.114;2024-02-23T02:27:47;98803.06;;;7.52;58.66
81387;BME280;70842;50.744;7.114;2024-02-23T02:30:14;98791.25;;;7.73;58.40
81387;BME280;70842;50.744;7.114;2024-02-23T02:32:41;98813.22;;;7.64;58.35
81387;BME280;70842;50.744;7.114;2024-02-23T02:35:10;98818.28;;;7.58;57.86
81387;BME280;70842;50.744;7.114;2024-02-23T02:37:38;98803.31;;;7.14;59.11
81387;BME280;70842;50.744;7.114;2024-02-23T02:40:06;98820.88;;;7.40;59.32
81387;BME280;70842;50.744;7.114;2024-02-23T02:42:33;98828.38;;;7.18;59.42
81387;BME280;70842;50.744;7.114;2024-02-23T02:44:59;98834.72;;;7.25;58.83
81387;BME280;70842;50.744;7.114;2024-02-23T02:47:26;98828.13;;;7.11;59.22
81387;BME280;70842;50.744;7.114;2024-02-23T02:49:53;98836.44;;;7.16;59.18
81387;BME280;70842;50.744;7.114;2024-02-23T02:52:19;98827.84;;;7.59;57.84
81387;BME280;70842;50.744;7.114;2024-02-23T02:54:49;98827.91;;;7.04;58.97
81387;BME280;70842;50.744;7.114;2024-02-23T02:57:16;98831.69;;;7.20;58.81
81387;BME280;70842;50.744;7.114;2024-02-23T02:59:42;98835.03;;;7.39;57.64
81387;BME280;70842;50.744;7.114;2024-02-23T03:02:10;98832.34;;;7.66;57.58
81387;BME280;70842;50.744;7.114;2024-02-23T03:04:37;98836.34;;;7.08;58.92
81387;BME280;70842;50.744;7.114;2024-02-23T03:07:03;98833.97;;;7.32;58.75
81387;BME280;70842;50.744;7.114;2024-02-23T03:09:30;98833.56;;;7.54;57.81
81387;BME280;70842;50.744;7.114;2024-02-23T03:11:56;98838.03;;;7.27;58.91
81387;BME280;70842;50.744;7.114;2024-02-23T03:14:23;98836.38;;;6.71;59.85
81387;BME280;70842;50.744;7.114;2024-02-23T03:16:49;98838.84;;;7.09;59.00
81387;BME280;70842;50.744;7.114;2024-02-23T03:19:16;98833.75;;;6.98;59.91
81387;BME280;70842;50.744;7.114;2024-02-23T03:21:42;98846.72;;;7.09;59.20
81387;BME280;70842;50.744;7.114;2024-02-23T03:24:08;98841.56;;;6.90;59.97
81387;BME280;70842;50.744;7.114;2024-02-23T03:26:35;98848.03;;;6.96;59.21
81387;BME280;70842;50.744;7.114;2024-02-23T03:29:02;98849.97;;;7.03;58.37
81387;BME280;70842;50.744;7.114;2024-02-23T03:31:28;98847.53;;;7.37;58.23
81387;BME280;70842;50.744;7.114;2024-02-23T03:33:55;98846.53;;;7.21;58.75
81387;BME280;70842;50.744;7.114;2024-02-23T03:36:21;98842.66;;;6.97;58.75
81387;BME280;70842;50.744;7.114;2024-02-23T03:38:48;98840.97;;;6.96;58.98
81387;BME280;70842;50.744;7.114;2024-02-23T03:41:14;98854.78;;;7.08;58.24
81387;BME280;70842;50.744;7.114;2024-02-23T03:43:40;98848.00;;;7.68;57.04
81387;BME280;70842;50.744;7.114;2024-02-23T03:46:07;98844.28;;;6.98;58.88
81387;BME280;70842;50.744;7.114;2024-02-23T03:48:33;98838.53;;;7.75;57.22
81387;BME280;70842;50.744;7.114;2024-02-23T03:51:00;98838.09;;;7.44;57.16
81387;BME280;70842;50.744;7.114;2024-02-23T03:53:27;98843.19;;;7.46;57.32
81387;BME280;70842;50.744;7.114;2024-02-23T03:55:53;98827.72;;;6.88;58.27
81387;BME280;70842;50.744;7.114;2024-02-23T03:58:19;98836.59;;;7.15;57.70
81387;BME280;70842;50.744;7.114;2024-02-23T04:00:46;98836.81;;;7.48;57.52
81387;BME280;70842;50.744;7.114;2024-02-23T04:03:12;98843.72;;;7.49;57.17
81387;BME280;70842;50.744;7.114;2024-02-23T04:05:39;98854.56;;;7.19;58.08
81387;BME280;70842;50.744;7.114;2024-02-23T04:08:05;98851.78;;;6.93;58.68
81387;BME280;70842;50.744;7.114;2024-02-23T04:10:32;98848.53;;;6.82;58.70
81387;BME280;70842;50.744;7.114;2024-02-23T04:13:00;98842.41;;;6.91;58.74
81387;BME280;70842;50.744;7.114;2024-02-23T04:15:27;98851.91;;;6.74;59.29
81387;BME280;70842;50.744;7.114;2024-02-23T04:17:53;98844.97;;;7.00;58.18
81387;BME280;70842;50.744;7.114;2024-02-23T04:20:19;98843.88;;;6.66;58.95
81387;BME280;70842;50.744;7.114;2024-02-23T04:22:46;98853.44;;;7.04;58.22
81387;BME280;70842;50.744;7.114;2024-02-23T04:25:13;98853.34;;;6.86;58.56
81387;BME280;70842;50.744;7.114;2024-02-23T04:27:39;98836.38;;;7.26;57.61
81387;BME280;70842;50.744;7.114;2024-02-23T04:30:06;98854.63;;;7.37;57.56
81387;BME280;70842;50.744;7.114;2024-02-23T04:32:33;98848.47;;;7.46;57.48
81387;BME280;70842;50.744;7.114;2024-02-23T04:34:59;98846.81;;;7.18;57.69
81387;BME280;70842;50.744;7.114;2024-02-23T04:37:26;98847.56;;;7.72;56.76
81387;BME280;70842;50.744;7.114;2024-02-23T04:39:52;98859.91;;;7.72;56.30
81387;BME280;70842;50.744;7.114;2024-02-23T04:42:19;98866.41;;;7.95;55.72
81387;BME280;70842;50.744;7.114;2024-02-23T04:44:45;98862.16;;;7.49;57.09
81387;BME280;70842;50.744;7.114;2024-02-23T04:47:12;98865.50;;;7.24;57.54
81387;BME280;70842;50.744;7.114;2024-02-23T04:49:38;98859.00;;;7.46;57.19
81387;BME280;70842;50.744;7.114;2024-02-23T04:52:05;98852.84;;;7.55;57.12
81387;BME280;70842;50.744;7.114;2024-02-23T04:54:32;98867.16;;;8.05;56.00
81387;BME280;70842;50.744;7.114;2024-02-23T04:56:58;98865.25;;;7.98;55.62
81387;BME280;70842;50.744;7.114;2024-02-23T04:59:25;98869.69;;;7.62;56.72
81387;BME280;70842;50.744;7.114;2024-02-23T05:01:51;98862.59;;;7.27;57.82
81387;BME280;70842;50.744;7.114;2024-02-23T05:04:18;98866.38;;;7.60;56.44
81387;BME280;70842;50.744;7.114;2024-02-23T05:06:44;98863.91;;;8.11;55.62
81387;BME280;70842;50.744;7.114;2024-02-23T05:09:11;98860.22;;;7.69;56.29
81387;BME280;70842;50.744;7.114;2024-02-23T05:11:37;98859.38;;;7.68;56.68
81387;BME280;70842;50.744;7.114;2024-02-23T05:14:04;98857.72;;;7.85;56.07
81387;BME280;70842;50.744;7.114;2024-02-23T05:16:30;98867.66;;;8.44;55.09
81387;BME280;70842;50.744;7.114;2024-02-23T05:18:57;98877.88;;;8.04;55.15
81387;BME280;70842;50.744;7.114;2024-02-23T05:21:24;98875.91;;;8.06;55.86
81387;BME280;70842;50.744;7.114;2024-02-23T05:23:52;98868.94;;;8.05;56.08
81387;BME280;70842;50.744;7.114;2024-02-23T05:26:18;98863.66;;;8.22;55.25
81387;BME280;70842;50.744;7.114;2024-02-23T05:28:45;98857.19;;;8.34;54.83
81387;BME280;70842;50.744;7.114;2024-02-23T05:31:11;98858.34;;;7.79;55.68
81387;BME280;70842;50.744;7.114;2024-02-23T05:33:38;98860.00;;;7.62;56.08
81387;BME280;70842;50.744;7.114;2024-02-23T05:36:05;98847.47;;;8.17;55.35
81387;BME280;70842;50.744;7.114;2024-02-23T05:38:32;98847.06;;;8.12;55.32
81387;BME280;70842;50.744;7.114;2024-02-23T05:40:58;98858.28;;;8.49;54.87
81387;BME280;70842;50.744;7.114;2024-02-23T05:43:25;98852.63;;;8.70;54.79
81387;BME280;70842;50.744;7.114;2024-02-23T05:45:51;98855.38;;;8.60;54.46
81387;BME280;70842;50.744;7.114;2024-02-23T05:48:18;98833.09;;;7.94;56.16
81387;BME280;70842;50.744;7.114;2024-02-23T05:50:45;98839.28;;;7.85;56.32
81387;BME280;70842;50.744;7.114;2024-02-23T05:53:12;98834.25;;;8.17;55.90
81387;BME280;70842;50.744;7.114;2024-02-23T05:55:38;98843.38;;;8.40;55.47
81387;BME280;70842;50.744;7.114;2024-02-23T05:58:05;98843.88;;;7.83;56.69
81387;BME280;70842;50.744;7.114;2024-02-23T06:00:31;98842.84;;;8.19;56.11
81387;BME280;70842;50.744;7.114;2024-02-23T06:02:58;98845.72;;;8.43;55.31
81387;BME280;70842;50.744;7.114;2024-02-23T06:05:24;98842.44;;;8.49;55.30
81387;BME280;70842;50.744;7.114;2024-02-23T06:07:54;98834.47;;;8.41;55.98
81387;BME280;70842;50.744;7.114;2024-02-23T06:10:21;98856.41;;;7.63;57.15
81387;BME280;70842;50.744;7.114;2024-02-23T06:12:47;98844.31;;;7.43;57.83
81387;BME280;70842;50.744;7.114;2024-02-23T06:15:14;98848.19;;;7.84;57.19
81387;BME280;70842;50.744;7.114;2024-02-23T06:17:40;98844.53;;;7.85;57.43
81387;BME280;70842;50.744;7.114;2024-02-23T06:20:07;98846.03;;;8.23;56.52
81387;BME280;70842;50.744;7.114;2024-02-23T06:22:34;98844.47;;;8.55;55.41
81387;BME280;70842;50.744;7.114;2024-02-23T06:25:01;98842.66;;;8.56;56.02
81387;BME280;70842;50.744;7.114;2024-02-23T06:27:31;98833.84;;;8.47;55.74
81387;BME280;70842;50.744;7.114;2024-02-23T06:29:57;98833.69;;;8.75;55.58
81387;BME280;70842;50.744;7.114;2024-02-23T06:32:24;98834.38;;;8.51;55.18
81387;BME280;70842;50.744;7.114;2024-02-23T06:34:50;98835.31;;;8.24;55.95
81387;BME280;70842;50.744;7.114;2024-02-23T06:37:17;98830.78;;;8.34;55.84
81387;BME280;70842;50.744;7.114;2024-02-23T06:39:43;98827.91;;;7.49;57.41
81387;BME280;70842;50.744;7.114;2024-02-23T06:42:10;98839.94;;;8.05;56.36
81387;BME280;70842;50.744;7.114;2024-02-23T06:44:36;98839.50;;;7.56;57.39
81387;BME280;70842;50.744;7.114;2024-02-23T06:47:03;98843.06;;;7.65;57.56
81387;BME280;70842;50.744;7.114;2024-02-23T06:49:30;98856.53;;;7.44;57.63
81387;BME280;70842;50.744;7.114;2024-02-23T06:51:56;98843.69;;;8.20;56.54
81387;BME280;70842;50.744;7.114;2024-02-23T06:54:23;98845.03;;;8.41;55.86
81387;BME280;70842;50.744;7.114;2024-02-23T06:56:49;98853.03;;;8.32;56.14
81387;BME280;70842;50.744;7.114;2024-02-23T06:59:15;98843.84;;;8.18;55.63
81387;BME280;70842;50.744;7.114;2024-02-23T07:01:49;98848.69;;;8.05;56.31
81387;BME280;70842;50.744;7.114;2024-02-23T07:04:16;98860.09;;;8.49;55.91
81387;BME280;70842;50.744;7.114;2024-02-23T07:06:43;98837.63;;;7.84;55.86
81387;BME280;70842;50.744;7.114;2024-02-23T07:09:10;98863.69;;;8.05;56.13
81387;BME280;70842;50.744;7.114;2024-02-23T07:11:38;98859.59;;;8.10;55.69
81387;BME280;70842;50.744;7.114;2024-02-23T07:14:05;98868.06;;;8.14;55.79
81387;BME280;70842;50.744;7.114;2024-02-23T07:16:31;98874.69;;;7.65;56.96
81387;BME280;70842;50.744;7.114;2024-02-23T07:18:58;98873.81;;;8.52;55.22
81387;BME280;70842;50.744;7.114;2024-02-23T07:21:25;98870.59;;;7.53;57.40
81387;BME280;70842;50.744;7.114;2024-02-23T07:23:52;98872.81;;;7.75;57.36
81387;BME280;70842;50.744;7.114;2024-02-23T07:26:18;98863.22;;;7.92;56.84
81387;BME280;70842;50.744;7.114;2024-02-23T07:28:46;98864.28;;;8.16;55.71
81387;BME280;70842;50.744;7.114;2024-02-23T07:31:13;98864.88;;;8.10;55.30
81387;BME280;70842;50.744;7.114;2024-02-23T07:33:39;98880.25;;;7.62;56.87
81387;BME280;70842;50.744;7.114;2024-02-23T07:36:06;98872.88;;;7.83;56.26
81387;BME280;70842;50.744;7.114;2024-02-23T07:38:35;98874.91;;;8.07;55.77
81387;BME280;70842;50.744;7.114;2024-02-23T07:41:01;98889.28;;;7.59;56.03
81387;BME280;70842;50.744;7.114;2024-02-23T07:43:28;98880.78;;;8.01;56.02
81387;BME280;70842;50.744;7.114;2024-02-23T07:45:55;98869.63;;;8.24;55.49
81387;BME280;70842;50.744;7.114;2024-02-23T07:48:22;98870.59;;;8.41;54.78
81387;BME280;70842;50.744;7.114;2024-02-23T07:50:48;98862.31;;;8.18;55.01
81387;BME280;70842;50.744;7.114;2024-02-23T07:53:15;98875.72;;;8.42;54.12
81387;BME280;70842;50.744;7.114;2024-02-23T07:55:41;98876.72;;;8.06;55.74
81387;BME280;70842;50.744;7.114;2024-02-23T07:58:08;98858.84;;;8.35;54.32
81387;BME280;70842;50.744;7.114;2024-02-23T08:00:34;98878.94;;;8.80;53.80
81387;BME280;70842;50.744;7.114;2024-02-23T08:03:04;98884.63;;;8.41;54.04
81387;BME280;70842;50.744;7.114;2024-02-23T08:05:31;98882.44;;;8.19;55.59
81387;BME280;70842;50.744;7.114;2024-02-23T08:07:58;98878.38;;;8.07;55.78
81387;BME280;70842;50.744;7.114;2024-02-23T08:10:25;98879.16;;;8.60;54.22
81387;BME280;70842;50.744;7.114;2024-02-23T08:12:52;98902.56;;;7.85;55.82
81387;BME280;70842;50.744;7.114;2024-02-23T08:15:18;98879.78;;;8.19;55.46
81387;BME280;70842;50.744;7.114;2024-02-23T08:17:45;98897.94;;;8.40;55.58
81387;BME280;70842;50.744;7.114;2024-02-23T08:20:11;98900.09;;;8.01;55.16
81387;BME280;70842;50.744;7.114;2024-02-23T08:22:38;98894.56;;;8.99;54.47
81387;BME280;70842;50.744;7.114;2024-02-23T08:25:04;98901.16;;;8.95;54.00
81387;BME280;70842;50.744;7.114;2024-02-23T08:27:31;98898.81;;;8.66;53.31
81387;BME280;70842;50.744;7.114;2024-02-23T08:29:57;98898.72;;;8.76;54.16
81387;BME280;70842;50.744;7.114;2024-02-23T08:32:24;98906.16;;;8.02;54.54
81387;BME280;70842;50.744;7.114;2024-02-23T08:34:51;98900.06;;;8.80;53.87
81387;BME280;70842;50.744;7.114;2024-02-23T08:37:19;98895.97;;;8.59;53.62
81387;BME280;70842;50.744;7.114;2024-02-23T08:39:45;98890.91;;;8.48;53.53
81387;BME280;70842;50.744;7.114;2024-02-23T08:42:12;98903.84;;;8.34;54.55
81387;BME280;70842;50.744;7.114;2024-02-23T08:44:38;98899.78;;;8.22;54.16
81387;BME280;70842;50.744;7.114;2024-02-23T08:47:05;98887.75;;;8.62;53.97
81387;BME280;70842;50.744;7.114;2024-02-23T08:49:32;98883.31;;;9.30;52.74
81387;BME280;70842;50.744;7.114;2024-02-23T08:51:58;98900.94;;;8.62;53.60
81387;BME280;70842;50.744;7.114;2024-02-23T08:54:25;98893.22;;;8.95;52.88
81387;BME280;70842;50.744;7.114;2024-02-23T08:56:51;98897.81;;;8.41;54.41
81387;BME280;70842;50.744;7.114;2024-02-23T08:59:17;98916.88;;;9.04;53.32
81387;BME280;70842;50.744;7.114;2024-02-23T09:01:44;98910.41;;;8.99;54.10
81387;BME280;70842;50.744;7.114;2024-02-23T09:04:13;98911.09;;;8.75;54.07
81387;BME280;70842;50.744;7.114;2024-02-23T09:06:39;98910.88;;;8.69;53.91
81387;BME280;70842;50.744;7.114;2024-02-23T09:09:06;98922.28;;;9.28;52.29
81387;BME280;70842;50.744;7.114;2024-02-23T09:11:33;98924.06;;;9.20;54.11
81387;BME280;70842;50.744;7.114;2024-02-23T09:13:59;98928.94;;;8.81;53.35
81387;BME280;70842;50.744;7.114;2024-02-23T09:16:26;98947.78;;;8.60;53.91
81387;BME280;70842;50.744;7.114;2024-02-23T09:18:52;98938.13;;;8.51;54.27
81387;BME280;70842;50.744;7.114;2024-02-23T09:21:19;98930.41;;;8.76;53.62
81387;BME280;70842;50.744;7.114;2024-02-23T09:23:45;98926.31;;;8.81;53.72
81387;BME280;70842;50.744;7.114;2024-02-23T09:26:12;98936.13;;;9.64;52.20
81387;BME280;70842;50.744;7.114;2024-02-23T09:28:39;98927.56;;;9.28;52.03
81387;BME280;70842;50.744;7.114;2024-02-23T09:31:08;98920.25;;;9.56;51.75
81387;BME280;70842;50.744;7.114;2024-02-23T09:33:34;98910.09;;;9.93;51.25
81387;BME280;70842;50.744;7.114;2024-02-23T09:36:01;98919.22;;;9.49;51.67
81387;BME280;70842;50.744;7.114;2024-02-23T09:38:27;98916.13;;;9.20;52.72
81387;BME280;70842;50.744;7.114;2024-02-23T09:40:54;98915.97;;;9.21;52.01
81387;BME280;70842;50.744;7.114;2024-02-23T09:43:21;98923.72;;;9.23;52.16
81387;BME280;70842;50.744;7.114;2024-02-23T09:45:51;98929.34;;;9.62;51.77
81387;BME280;70842;50.744;7.114;2024-02-23T09:48:18;98938.19;;;9.44;52.21
81387;BME280;70842;50.744;7.114;2024-02-23T09:50:47;98930.81;;;9.56;52.31
81387;BME280;70842;50.744;7.114;2024-02-23T09:53:14;98927.00;;;10.25;51.25
81387;BME280;70842;50.744;7.114;2024-02-23T09:55:42;98943.53;;;9.61;51.52
81387;BME280;70842;50.744;7.114;2024-02-23T09:58:12;98940.34;;;9.07;52.94
81387;BME280;70842;50.744;7.114;2024-02-23T10:00:40;98947.00;;;9.19;53.22
81387;BME280;70842;50.744;7.114;2024-02-23T10:03:07;98942.53;;;8.86;53.70
81387;BME280;70842;50.744;7.114;2024-02-23T10:05:34;98944.38;;;9.19;53.19
81387;BME280;70842;50.744;7.114;2024-02-23T10:08:05;98951.19;;;9.30;53.52
81387;BME280;70842;50.744;7.114;2024-02-23T10:10:33;98940.28;;;9.75;51.94
81387;BME280;70842;50.744;7.114;2024-02-23T10:13:00;98946.97;;;9.11;55.25
81387;BME280;70842;50.744;7.114;2024-02-23T10:15:30;98957.94;;;9.58;54.05
81387;BME280;70842;50.744;7.114;2024-02-23T10:17:59;98951.88;;;8.81;54.56
81387;BME280;70842;50.744;7.114;2024-02-23T10:20:26;98961.00;;;8.43;55.98
81387;BME280;70842;50.744;7.114;2024-02-23T10:22:52;98958.06;;;8.72;55.94
81387;BME280;70842;50.744;7.114;2024-02-23T10:25:20;98953.00;;;9.04;55.29
81387;BME280;70842;50.744;7.114;2024-02-23T10:27:47;98944.06;;;9.64;54.11
81387;BME280;70842;50.744;7.114;2024-02-23T10:30:13;98955.66;;;9.04;55.38
81387;BME280;70842;50.744;7.114;2024-02-23T10:32:41;98945.19;;;9.20;54.88
81387;BME280;70842;50.744;7.114;2024-02-23T10:35:13;98938.47;;;9.00;54.46
81387;BME280;70842;50.744;7.114;2024-02-23T10:37:43;98939.09;;;9.61;52.35
81387;BME280;70842;50.744;7.114;2024-02-23T10:40:11;98950.13;;;9.57;53.40
81387;BME280;70842;50.744;7.114;2024-02-23T10:42:39;98941.19;;;9.99;52.49
81387;BME280;70842;50.744;7.114;2024-02-23T10:45:07;98924.88;;;10.36;49.81
81387;BME280;70842;50.744;7.114;2024-02-23T10:47:35;98957.03;;;9.99;49.76
81387;BME280;70842;50.744;7.114;2024-02-23T10:50:03;98963.16;;;9.92;49.79
81387;BME280;70842;50.744;7.114;2024-02-23T10:52:31;98968.69;;;9.65;51.22
81387;BME280;70842;50.744;7.114;2024-02-23T10:55:00;98944.06;;;10.22;50.58
81387;BME280;70842;50.744;7.114;2024-02-23T10:57:27;98955.72;;;9.95;50.67
81387;BME280;70842;50.744;7.114;2024-02-23T10:59:54;98952.69;;;10.24;50.50
81387;BME280;70842;50.744;7.114;2024-02-23T11:02:21;98980.88;;;9.99;51.62
81387;BME280;70842;50.744;7.114;2024-02-23T11:04:51;98981.13;;;9.80;53.31
81387;BME280;70842;50.744;7.114;2024-02-23T11:07:19;98955.16;;;9.34;54.73
81387;BME280;70842;50.744;7.114;2024-02-23T11:09:53;98994.09;;;9.99;52.73
81387;BME280;70842;50.744;7.114;2024-02-23T11:12:24;98969.03;;;11.08;51.19
81387;BME280;70842;50.744;7.114;2024-02-23T11:14:51;98967.66;;;11.20;50.69
81387;BME280;70842;50.744;7.114;2024-02-23T11:17:22;98936.28;;;10.77;50.02
81387;BME280;70842;50.744;7.114;2024-02-23T11:19:49;98946.59;;;11.27;49.95
81387;BME280;70842;50.744;7.114;2024-02-23T11:22:33;98941.50;;;11.17;48.34
81387;BME280;70842;50.744;7.114;2024-02-23T11:25:08;98936.06;;;11.49;49.69
81387;BME280;70842;50.744;7.114;2024-02-23T11:27:37;98935.19;;;11.73;48.72
81387;BME280;70842;50.744;7.114;2024-02-23T11:30:07;98942.59;;;11.39;48.07
81387;BME280;70842;50.744;7.114;2024-02-23T11:32:39;98940.19;;;11.13;49.21
81387;BME280;70842;50.744;7.114;2024-02-23T11:35:08;98944.34;;;10.99;50.02
81387;BME280;70842;50.744;7.114;2024-02-23T11:37:51;98931.81;;;11.40;48.64
81387;BME280;70842;50.744;7.114;2024-02-23T11:40:26;98950.84;;;10.57;50.86
81387;BME280;70842;50.744;7.114;2024-02-23T11:42:54;98932.16;;;11.37;49.21
81387;BME280;70842;50.744;7.114;2024-02-23T11:45:21;98927.34;;;11.80;48.24
81387;BME280;70842;50.744;7.114;2024-02-23T11:47:48;98926.75;;;11.23;48.49
81387;BME280;70842;50.744;7.114;2024-02-23T11:50:14;98926.22;;;11.27;48.09
81387;BME280;70842;50.744;7.114;2024-02-23T11:52:47;98927.75;;;11.22;48.35
81387;BME280;70842;50.744;7.114;2024-02-23T11:55:19;98934.88;;;11.21;48.62
81387;BME280;70842;50.744;7.114;2024-02-23T11:57:51;98952.50;;;10.50;48.90
81387;BME280;70842;50.744;7.114;2024-02-23T12:00:31;98947.03;;;10.35;49.18
81387;BME280;70842;50.744;7.114;2024-02-23T12:02:57;98933.16;;;11.28;47.75
81387;BME280;70842;50.744;7.114;2024-02-23T12:05:24;98962.41;;;11.04;47.62
81387;BME280;70842;50.744;7.114;2024-02-23T12:07:50;98940.59;;;10.70;48.70
81387;BME280;70842;50.744;7.114;2024-02-23T12:10:17;98928.84;;;10.64;48.42
81387;BME280;70842;50.744;7.114;2024-02-23T12:12:44;98913.88;;;11.04;48.83
81387;BME280;70842;50.744;7.114;2024-02-23T12:15:11;98931.16;;;10.27;48.62
81387;BME280;70842;50.744;7.114;2024-02-23T12:17:46;98915.72;;;10.95;48.07
81387;BME280;70842;50.744;7.114;2024-02-23T12:20:13;98917.03;;;10.99;48.05
81387;BME280;70842;50.744;7.114;2024-02-23T12:22:43;98913.91;;;11.42;47.35
81387;BME280;70842;50.744;7.114;2024-02-23T12:25:09;98903.44;;;11.49;47.07
81387;BME280;70842;50.744;7.114;2024-02-23T12:27:37;98913.47;;;12.00;45.74
81387;BME280;70842;50.744;7.114;2024-02-23T12:30:04;98942.25;;;10.63;48.02
81387;BME280;70842;50.744;7.114;2024-02-23T12:32:31;98921.72;;;11.36;47.48
81387;BME280;70842;50.744;7.114;2024-02-23T12:34:57;98930.97;;;11.87;46.44
81387;BME280;70842;50.744;7.114;2024-02-23T12:37:24;98926.41;;;11.64;47.08
81387;BME280;70842;50.744;7.114;2024-02-23T12:39:50;98942.84;;;11.05;48.58
81387;BME280;70842;50.744;7.114;2024-02-23T12:42:18;98926.78;;;10.98;49.21
81387;BME280;70842;50.744;7.114;2024-02-23T12:44:44;98933.81;;;10.83;49.52
81387;BME280;70842;50.744;7.114;2024-02-23T12:47:11;98935.47;;;10.36;50.46
81387;BME280;70842;50.744;7.114;2024-02-23T12:49:37;98942.25;;;10.31;49.41
81387;BME280;70842;50.744;7.114;2024-02-23T12:52:06;98927.16;;;10.95;49.74
81387;BME280;70842;50.744;7.114;2024-02-23T12:54:33;98937.97;;;10.62;49.74
81387;BME280;70842;50.744;7.114;2024-02-23T12:56:59;98919.94;;;11.20;49.39
81387;BME280;70842;50.744;7.114;2024-02-23T12:59:26;98921.25;;;11.32;49.21
81387;BME280;70842;50.744;7.114;2024-02-23T13:01:52;98932.91;;;11.15;48.75
81387;BME280;70842;50.744;7.114;2024-02-23T13:04:19;98914.25;;;10.84;49.07
81387;BME280;70842;50.744;7.114;2024-02-23T13:06:46;98954.59;;;11.19;47.96
81387;BME280;70842;50.744;7.114;2024-02-23T13:09:13;98938.50;;;12.06;47.06